There are multiple Weather-warnings   Click here for more information


Meteo18 Weather Cam more information Meteo18 Weather Cam


warning for Thunderstorms more information blitzortung!


Rain radar more information rain snow radar


Visit our other weather sites:

Template documentation
and downloads

And another site



Weather Underground History page Text

Daily Summary for March 4, 2017 Units:  English    Metric   Both
« Previous Day
Next Day »
Daily Weekly Monthly Yearly Custom
  High: Low: Average:
Temperature: 53.8 °F 41.7 °F 46.2 °F
Dew Point: 45.3 °F 38.5 °F 42.8 °F
Humidity: 96 % 65 % 88 %
Wind Speed: 14 mph 0 mph 5 mph
Wind Gust: 33 mph - -
Wind:- - SW
Pressure: 29.6 in 29.3 in -
Precipitation: 0.8 in    
Historical Graphs
 
 
Tabular Data for March 4, 2017
Time Temperature Dew Point Pressure Wind Wind Speed Wind Gust Humidity Rainfall Rate (Hourly)
00:02 53.8 °F 42.6 °F 29.5 in SE 6 mph 11 mph 66 % 0 in
00:07 53.8 °F 42.3 °F 29.4 in SSE 7 mph 15 mph 65 % 0 in
00:12 53.8 °F 42.6 °F 29.4 in SE 6 mph 15 mph 66 % 0 in
00:17 53.6 °F 43 °F 29.5 in SE 6 mph 15 mph 67 % 0 in
00:22 53.1 °F 43.2 °F 29.5 in SE 6 mph 15 mph 69 % 0 in
00:32 52 °F 43.9 °F 29.5 in SE 5 mph 16 mph 74 % 0.02 in
00:42 51.3 °F 43.5 °F 29.4 in SE 5 mph 16 mph 75 % 0.03 in
00:47 51.3 °F 43.9 °F 29.5 in SSE 3 mph 14 mph 76 % 0.03 in
00:52 50.7 °F 44.1 °F 29.5 in SSE 3 mph 12 mph 78 % 0.04 in
00:57 50.7 °F 44.1 °F 29.4 in ESE 6 mph 12 mph 78 % 0.04 in
01:02 50.9 °F 44.2 °F 29.4 in ESE 4 mph 16 mph 78 % 0.04 in
01:07 50.7 °F 44.1 °F 29.4 in ESE 3 mph 16 mph 78 % 0.05 in
01:12 50.5 °F 44.2 °F 29.4 in South 1 mph 12 mph 79 % 0.05 in
01:17 50.4 °F 44.1 °F 29.4 in SE 2 mph 7 mph 79 % 0.05 in
01:22 50.2 °F 44.2 °F 29.4 in ESE 4 mph 8 mph 80 % 0.05 in
01:27 50.2 °F 44.2 °F 29.4 in ESE 2 mph 8 mph 80 % 0.04 in
01:32 50.2 °F 43.9 °F 29.4 in ESE 5 mph 8 mph 79 % 0.02 in
01:37 50.4 °F 43.7 °F 29.4 in South 2 mph 9 mph 78 % 0.02 in
01:42 50.5 °F 43.5 °F 29.4 in SE 4 mph 9 mph 77 % 0.02 in
01:47 50.7 °F 43.5 °F 29.4 in ESE 7 mph 9 mph 76 % 0.01 in
01:52 51.1 °F 43.5 °F 29.4 in SE 6 mph 9 mph 75 % 0.01 in
01:57 51.3 °F 43 °F 29.4 in ESE 4 mph 9 mph 73 % 0.01 in
02:07 51.3 °F 43.3 °F 29.4 in SSE 3 mph 11 mph 74 % 0 in
02:12 51.3 °F 43.3 °F 29.4 in SE 3 mph 7 mph 74 % 0 in
02:17 51.3 °F 43.3 °F 29.4 in SSE 4 mph 7 mph 74 % 0 in
02:22 51.1 °F 43.2 °F 29.4 in SE 6 mph 6 mph 74 % 0.01 in
02:27 50.9 °F 43.5 °F 29.4 in SE 4 mph 8 mph 76 % 0.01 in
02:32 50.7 °F 43.7 °F 29.4 in SE 4 mph 8 mph 77 % 0.01 in
02:37 50.4 °F 43.7 °F 29.4 in SSE 3 mph 8 mph 78 % 0.02 in
02:42 50.4 °F 44.1 °F 29.4 in SE 3 mph 6 mph 79 % 0.02 in
02:47 50.2 °F 43.9 °F 29.4 in SSE 3 mph 6 mph 79 % 0.02 in
02:52 50 °F 44.1 °F 29.4 in Calm   6 mph 80 % 0.03 in
02:57 49.8 °F 44.2 °F 29.4 in SSE 1 mph 6 mph 81 % 0.03 in
03:02 49.8 °F 44.2 °F 29.4 in SE 4 mph 8 mph 81 % 0.04 in
03:07 49.8 °F 44.2 °F 29.4 in SE 3 mph 8 mph 81 % 0.04 in
03:12 49.6 °F 44.4 °F 29.4 in SSE 2 mph 9 mph 82 % 0.05 in
03:17 49.5 °F 44.2 °F 29.4 in SE 4 mph 9 mph 82 % 0.06 in
03:22 49.5 °F 44.2 °F 29.4 in South 4 mph 9 mph 82 % 0.06 in
03:27 49.5 °F 44.6 °F 29.4 in SSW 6 mph 11 mph 83 % 0.06 in
03:32 49.3 °F 44.6 °F 29.4 in SSE 6 mph 11 mph 84 % 0.06 in
03:37 49.1 °F 44.8 °F 29.4 in SE 5 mph 11 mph 85 % 0.06 in
03:42 48.9 °F 45 °F 29.4 in South 3 mph 10 mph 86 % 0.06 in
03:47 48.9 °F 45 °F 29.4 in South 5 mph 10 mph 86 % 0.06 in
03:52 48.9 °F 45 °F 29.4 in SE 3 mph 10 mph 86 % 0.06 in
03:57 48.9 °F 45 °F 29.4 in SE 6 mph 10 mph 86 % 0.06 in
04:02 48.7 °F 44.8 °F 29.4 in SSE 3 mph 10 mph 86 % 0.07 in
04:07 48.7 °F 44.8 °F 29.4 in SE 7 mph 10 mph 86 % 0.06 in
04:12 48.7 °F 45 °F 29.4 in SE 2 mph 10 mph 87 % 0.06 in
04:17 48.6 °F 44.8 °F 29.4 in SSE 5 mph 10 mph 87 % 0.07 in
04:22 48.6 °F 45.1 °F 29.4 in SE 4 mph 10 mph 88 % 0.07 in
04:27 48.4 °F 45 °F 29.4 in SSE 3 mph 9 mph 88 % 0.08 in
04:32 48.4 °F 45 °F 29.4 in SSE 6 mph 10 mph 88 % 0.07 in
04:37 48.4 °F 45.3 °F 29.4 in SSW 3 mph 10 mph 89 % 0.07 in
04:42 48.2 °F 45.1 °F 29.4 in SSE 3 mph 10 mph 89 % 0.07 in
04:47 48 °F 45 °F 29.4 in South 3 mph 10 mph 89 % 0.07 in
04:52 48 °F 45 °F 29.4 in SSE 3 mph 10 mph 89 % 0.07 in
04:57 47.8 °F 45 °F 29.4 in South 2 mph 7 mph 90 % 0.08 in
05:02 47.8 °F 45 °F 29.4 in SE 3 mph 7 mph 90 % 0.07 in
05:07 47.8 °F 45 °F 29.4 in South 2 mph 6 mph 90 % 0.07 in
05:12 47.7 °F 45 °F 29.4 in South 3 mph 5 mph 90 % 0.07 in
05:17 47.7 °F 45.1 °F 29.4 in SE 1 mph 5 mph 91 % 0.06 in
05:22 47.5 °F 45 °F 29.4 in SSE 1 mph 5 mph 91 % 0.06 in
05:27 47.5 °F 45 °F 29.4 in SSW 1 mph 5 mph 91 % 0.06 in
05:32 47.3 °F 44.8 °F 29.4 in SSE 2 mph 4 mph 91 % 0.06 in
05:37 47.3 °F 45.1 °F 29.4 in SSE 1 mph 3 mph 92 % 0.06 in
05:42 47.1 °F 45 °F 29.4 in SSE 2 mph 3 mph 92 % 0.06 in
05:47 47.1 °F 45 °F 29.4 in SSW 2 mph 3 mph 92 % 0.05 in
05:52 47.1 °F 45 °F 29.4 in WSW 2 mph 3 mph 92 % 0.05 in
05:57 46.9 °F 45 °F 29.4 in South 1 mph 3 mph 93 % 0.05 in
06:02 46.9 °F 45 °F 29.4 in SW 1 mph 2 mph 93 % 0.05 in
06:07 46.8 °F 44.8 °F 29.4 in Calm   2 mph 93 % 0.04 in
06:12 46.8 °F 44.8 °F 29.3 in Calm   2 mph 93 % 0.05 in
06:17 46.6 °F 44.6 °F 29.3 in Calm   2 mph 93 % 0.04 in
06:22 46.6 °F 45 °F 29.3 in Calm   1 mph 94 % 0.05 in
06:27 46.6 °F 45 °F 29.3 in Calm   1 mph 94 % 0.05 in
06:32 46.6 °F 45 °F 29.3 in Calm   1 mph 94 % 0.05 in
06:37 46.4 °F 44.8 °F 29.3 in WSW 1 mph 1 mph 94 % 0.05 in
06:42 46.2 °F 44.6 °F 29.3 in WSW 1 mph 1 mph 94 % 0.05 in
06:47 46.2 °F 44.8 °F 29.3 in SW 1 mph 1 mph 95 % 0.05 in
06:52 46.2 °F 44.8 °F 29.3 in Calm   2 mph 95 % 0.06 in
07:02 46.2 °F 44.8 °F 29.3 in Calm   2 mph 95 % 0.06 in
07:12 46.2 °F 44.8 °F 29.3 in Calm   1 mph 95 % 0.06 in
07:17 46 °F 44.6 °F 29.3 in Calm   1 mph 95 % 0.07 in
07:22 46 °F 44.6 °F 29.3 in Calm   1 mph 95 % 0.07 in
07:32 46 °F 44.6 °F 29.3 in Calm   1 mph 95 % 0.07 in
07:37 46 °F 44.6 °F 29.3 in Calm   1 mph 95 % 0.07 in
07:42 46 °F 45 °F 29.3 in South 1 mph 2 mph 96 % 0.08 in
07:47 46 °F 45 °F 29.3 in SW 2 mph 2 mph 96 % 0.09 in
07:52 46 °F 45 °F 29.3 in SW 2 mph 2 mph 96 % 0.08 in
07:57 46 °F 45 °F 29.3 in SW 2 mph 3 mph 96 % 0.08 in
08:02 46 °F 45 °F 29.3 in SW 3 mph 3 mph 96 % 0.08 in
08:12 46 °F 45 °F 29.3 in WSW 1 mph 3 mph 96 % 0.08 in
08:17 46 °F 45 °F 29.3 in WSW 2 mph 3 mph 96 % 0.09 in
08:22 46 °F 45 °F 29.3 in WSW 3 mph 4 mph 96 % 0.08 in
08:32 46 °F 45 °F 29.3 in WSW 2 mph 4 mph 96 % 0.08 in
08:37 46 °F 45 °F 29.3 in WSW 6 mph 6 mph 96 % 0.07 in
08:42 46 °F 45 °F 29.3 in SW 3 mph 6 mph 96 % 0.07 in
08:52 45.9 °F 44.8 °F 29.3 in West 6 mph 8 mph 96 % 0.07 in
08:57 45.9 °F 44.8 °F 29.3 in WSW 2 mph 8 mph 96 % 0.07 in
09:02 45.7 °F 44.4 °F 29.3 in WSW 4 mph 7 mph 95 % 0.07 in
09:07 45.7 °F 44.4 °F 29.3 in West 5 mph 7 mph 95 % 0.08 in
09:12 45.7 °F 44.4 °F 29.3 in West 5 mph 8 mph 95 % 0.08 in
09:17 45.7 °F 44.4 °F 29.3 in WSW 7 mph 9 mph 95 % 0.08 in
09:22 45.7 °F 44.4 °F 29.3 in West 5 mph 9 mph 95 % 0.08 in
09:32 45.7 °F 44.4 °F 29.3 in WSW 4 mph 8 mph 95 % 0.09 in
09:42 45.7 °F 44.4 °F 29.3 in WSW 5 mph 9 mph 95 % 0.09 in
09:47 45.7 °F 44.4 °F 29.3 in WSW 6 mph 9 mph 95 % 0.09 in
09:52 45.7 °F 44.4 °F 29.3 in WSW 4 mph 9 mph 95 % 0.08 in
09:57 45.7 °F 44.4 °F 29.3 in WSW 3 mph 7 mph 95 % 0.08 in
10:02 45.7 °F 44.4 °F 29.3 in WSW 4 mph 7 mph 95 % 0.07 in
10:07 45.7 °F 44.4 °F 29.3 in WSW 3 mph 6 mph 95 % 0.07 in
10:12 45.7 °F 44.4 °F 29.3 in SSW 1 mph 5 mph 95 % 0.06 in
10:17 45.7 °F 44.4 °F 29.3 in SSW 4 mph 5 mph 95 % 0.06 in
10:22 45.7 °F 44.4 °F 29.3 in SW 4 mph 6 mph 95 % 0.06 in
10:27 45.7 °F 44.4 °F 29.3 in WSW 4 mph 6 mph 95 % 0.06 in
10:32 45.7 °F 44.4 °F 29.3 in WSW 2 mph 6 mph 95 % 0.06 in
10:42 45.7 °F 44.4 °F 29.4 in South 6 mph 7 mph 95 % 0.06 in
10:47 45.7 °F 44.4 °F 29.4 in SSW 6 mph 7 mph 95 % 0.05 in
10:52 45.7 °F 44.4 °F 29.4 in SSW 3 mph 8 mph 95 % 0.05 in
10:57 45.3 °F 43.7 °F 29.4 in SSW 1 mph 8 mph 94 % 0.06 in
11:02 45.3 °F 43.7 °F 29.3 in WSW 3 mph 7 mph 94 % 0.06 in
11:07 45.1 °F 43.5 °F 29.4 in SW 2 mph 8 mph 94 % 0.05 in
11:12 45.3 °F 43.7 °F 29.3 in WSW 2 mph 8 mph 94 % 0.04 in
11:22 45.1 °F 43.5 °F 29.3 in SSW 4 mph 6 mph 94 % 0.04 in
11:27 45 °F 43 °F 29.4 in SSW 4 mph 8 mph 93 % 0.03 in
11:32 45 °F 43 °F 29.4 in SSW 6 mph 8 mph 93 % 0.02 in
11:37 45 °F 43 °F 29.4 in SSW 2 mph 7 mph 93 % 0.02 in
11:42 45 °F 43 °F 29.4 in SE 2 mph 6 mph 93 % 0.02 in
11:47 45 °F 43 °F 29.4 in SSW 3 mph 6 mph 93 % 0.02 in
11:52 44.8 °F 42.8 °F 29.4 in SSW 4 mph 8 mph 93 % 0.02 in
11:57 44.8 °F 42.6 °F 29.4 in SSW 3 mph 8 mph 92 % 0.02 in
12:02 45 °F 43 °F 29.4 in SSW 5 mph 8 mph 93 % 0.02 in
12:07 45 °F 42.8 °F 29.4 in WSW 8 mph 8 mph 92 % 0.02 in
12:12 45 °F 42.8 °F 29.3 in WSW 8 mph 9 mph 92 % 0.01 in
12:17 45 °F 42.8 °F 29.3 in WSW 5 mph 10 mph 92 % 0.01 in
12:22 45 °F 43 °F 29.4 in SW 3 mph 10 mph 93 % 0.01 in
12:27 45.1 °F 43.2 °F 29.4 in WSW 6 mph 10 mph 93 % 0.01 in
12:32 45.1 °F 43 °F 29.3 in WSW 5 mph 9 mph 92 % 0.01 in
12:42 45.3 °F 43.3 °F 29.3 in WSW 5 mph 10 mph 93 % 0.01 in
12:47 45.1 °F 42.6 °F 29.4 in WSW 9 mph 10 mph 91 % 0.02 in
12:52 45 °F 43 °F 29.4 in SW 7 mph 13 mph 93 % 0.02 in
12:57 45 °F 43 °F 29.4 in SW 10 mph 13 mph 93 % 0.02 in
13:02 44.8 °F 42.8 °F 29.4 in WSW 14 mph 14 mph 93 % 0.02 in
13:07 44.8 °F 42.8 °F 29.4 in SW 5 mph 14 mph 93 % 0.02 in
13:12 44.8 °F 43.2 °F 29.4 in SSW 6 mph 14 mph 94 % 0.03 in
13:17 44.4 °F 42.4 °F 29.4 in SW 12 mph 14 mph 93 % 0.04 in
13:22 44.2 °F 42.3 °F 29.4 in SW 6 mph 14 mph 93 % 0.06 in
13:27 44.2 °F 42.3 °F 29.4 in SW 6 mph 12 mph 93 % 0.06 in
13:32 44.1 °F 42.1 °F 29.4 in SW 7 mph 12 mph 93 % 0.07 in
13:37 44.2 °F 42.3 °F 29.4 in SW 7 mph 11 mph 93 % 0.08 in
13:42 44.2 °F 42.6 °F 29.4 in SW 10 mph 16 mph 94 % 0.09 in
13:47 44.2 °F 42.3 °F 29.4 in SW 8 mph 16 mph 93 % 0.09 in
13:52 44.1 °F 42.1 °F 29.4 in SW 6 mph 16 mph 93 % 0.09 in
13:57 43.9 °F 41.7 °F 29.4 in SW 10 mph 15 mph 92 % 0.09 in
14:02 43.7 °F 41 °F 29.4 in West 9 mph 16 mph 90 % 0.1 in
14:12 43.5 °F 40.3 °F 29.4 in WNW 7 mph 21 mph 88 % 0.1 in
14:17 43.3 °F 39.7 °F 29.4 in West 4 mph 21 mph 87 % 0.09 in
14:22 43.3 °F 40.1 °F 29.4 in West 6 mph 14 mph 88 % 0.09 in
14:32 43.5 °F 40.8 °F 29.4 in West 3 mph 13 mph 90 % 0.07 in
14:37 43.7 °F 41 °F 29.4 in WNW 5 mph 12 mph 90 % 0.06 in
14:42 43.9 °F 41.2 °F 29.4 in WSW 6 mph 10 mph 90 % 0.06 in
14:47 44.1 °F 41.4 °F 29.4 in West 5 mph 10 mph 90 % 0.06 in
14:52 44.2 °F 41.5 °F 29.4 in West 2 mph 10 mph 90 % 0.06 in
14:57 44.4 °F 41.7 °F 29.4 in WNW 3 mph 9 mph 90 % 0.04 in
15:02 44.4 °F 41.9 °F 29.4 in SW 4 mph 9 mph 91 % 0.03 in
15:07 44.6 °F 42.1 °F 29.4 in West 5 mph 11 mph 91 % 0.02 in
15:12 44.8 °F 42.3 °F 29.4 in West 5 mph 11 mph 91 % 0.02 in
15:17 45 °F 42.8 °F 29.4 in SW 5 mph 11 mph 92 % 0.01 in
15:22 45.1 °F 43 °F 29.4 in SW 3 mph 9 mph 92 % 0.01 in
15:27 45.5 °F 43.3 °F 29.4 in WSW 4 mph 9 mph 92 % 0.01 in
15:32 46 °F 44.1 °F 29.4 in West 6 mph 9 mph 93 % 0.01 in
15:37 46.6 °F 44.1 °F 29.4 in SW 5 mph 14 mph 91 % 0.01 in
15:42 46.8 °F 44.2 °F 29.4 in WNW 7 mph 14 mph 91 % 0 in
15:52 46.9 °F 43.3 °F 29.4 in West 10 mph 16 mph 87 % 0 in
15:57 47.1 °F 43.7 °F 29.4 in West 11 mph 17 mph 88 % 0 in
16:02 46.9 °F 43.3 °F 29.4 in WSW 12 mph 17 mph 87 % 0 in
16:07 46.9 °F 43.3 °F 29.4 in West 9 mph 17 mph 87 % 0 in
16:12 46.9 °F 43 °F 29.4 in WSW 8 mph 17 mph 86 % 0 in
16:17 46.9 °F 42.6 °F 29.4 in West 11 mph 17 mph 85 % 0 in
16:22 46.9 °F 42.6 °F 29.4 in WSW 6 mph 15 mph 85 % 0 in
16:27 46.8 °F 42.3 °F 29.4 in West 10 mph 14 mph 84 % 0 in
16:32 46.6 °F 42.1 °F 29.4 in West 13 mph 16 mph 84 % 0 in
16:42 46.6 °F 42.3 °F 29.4 in WSW 9 mph 18 mph 85 % 0 in
16:47 46.6 °F 42.1 °F 29.4 in WSW 8 mph 18 mph 84 % 0 in
16:52 46.6 °F 42.3 °F 29.4 in West 9 mph 16 mph 85 % 0 in
16:57 46.6 °F 42.6 °F 29.4 in West 6 mph 16 mph 86 % 0 in
17:02 46.6 °F 42.6 °F 29.4 in WSW 5 mph 16 mph 86 % 0 in
17:07 46.6 °F 43 °F 29.4 in WSW 1 mph 15 mph 87 % 0 in
17:12 46.6 °F 43 °F 29.4 in West 4 mph 12 mph 87 % 0 in
17:17 46.6 °F 43 °F 29.4 in West 1 mph 7 mph 87 % 0 in
17:22 46.6 °F 43 °F 29.5 in SW 4 mph 5 mph 87 % 0 in
17:27 45.9 °F 41.9 °F 29.5 in WSW 7 mph 33 mph 86 % 0 in
17:32 45 °F 40.5 °F 29.5 in WSW 6 mph 33 mph 84 % 0 in
17:37 45.1 °F 40.6 °F 29.5 in West 5 mph 33 mph 84 % 0.01 in
17:42 45.3 °F 40.8 °F 29.5 in WSW 6 mph 15 mph 84 % 0.01 in
17:47 45.7 °F 41.4 °F 29.5 in WSW 7 mph 10 mph 85 % 0.01 in
17:52 45.7 °F 41.7 °F 29.5 in SW 5 mph 12 mph 86 % 0.01 in
17:57 45.9 °F 41.9 °F 29.5 in WSW 8 mph 12 mph 86 % 0.01 in
18:02 45.9 °F 42.3 °F 29.5 in SW 4 mph 12 mph 87 % 0.01 in
18:12 45.9 °F 42.3 °F 29.5 in WSW 8 mph 12 mph 87 % 0.01 in
18:17 45.9 °F 42.3 °F 29.5 in WSW 3 mph 12 mph 87 % 0.01 in
18:22 45.9 °F 42.3 °F 29.5 in WSW 3 mph 12 mph 87 % 0.01 in
18:27 45.7 °F 42.1 °F 29.5 in SW 1 mph 9 mph 87 % 0.01 in
18:32 45.7 °F 42.1 °F 29.5 in SW 5 mph 8 mph 87 % 0 in
18:42 45.7 °F 42.1 °F 29.5 in SW 5 mph 8 mph 87 % 0 in
18:47 45.7 °F 42.1 °F 29.5 in SW 5 mph 9 mph 87 % 0 in
18:52 45.7 °F 42.1 °F 29.5 in SW 6 mph 11 mph 87 % 0 in
18:57 45.9 °F 41.4 °F 29.5 in SW 5 mph 13 mph 84 % 0 in
19:02 46 °F 41.2 °F 29.5 in West 6 mph 13 mph 83 % 0 in
19:12 46 °F 40.5 °F 29.5 in WSW 10 mph 14 mph 81 % 0 in
19:17 45.9 °F 40.3 °F 29.5 in SW 9 mph 14 mph 81 % 0 in
19:22 45.9 °F 40.3 °F 29.5 in WSW 9 mph 14 mph 81 % 0 in
19:27 45.9 °F 40.6 °F 29.5 in WSW 3 mph 16 mph 82 % 0 in
19:32 45.9 °F 40.6 °F 29.5 in SW 4 mph 16 mph 82 % 0 in
19:42 45.7 °F 40.5 °F 29.5 in SSW 11 mph 13 mph 82 % 0 in
19:47 45.5 °F 40.3 °F 29.5 in SW 9 mph 15 mph 82 % 0 in
19:52 45.3 °F 39.9 °F 29.5 in WSW 13 mph 15 mph 81 % 0 in
19:57 45.1 °F 39.7 °F 29.6 in SW 11 mph 16 mph 81 % 0 in
20:07 44.8 °F 39.6 °F 29.6 in SSW 10 mph 20 mph 82 % 0 in
20:12 44.4 °F 39.2 °F 29.6 in West 7 mph 20 mph 82 % 0 in
20:17 44.1 °F 38.7 °F 29.6 in WSW 11 mph 20 mph 81 % 0 in
20:22 43.9 °F 38.7 °F 29.6 in WSW 5 mph 18 mph 82 % 0 in
20:32 43.3 °F 38.5 °F 29.6 in SSW 8 mph 15 mph 83 % 0 in
20:37 43.2 °F 38.7 °F 29.6 in SW 9 mph 14 mph 84 % 0 in
20:42 43.2 °F 39 °F 29.6 in WSW 3 mph 14 mph 85 % 0 in
20:47 43 °F 39 °F 29.6 in SW 7 mph 14 mph 86 % 0 in
20:57 42.6 °F 38.7 °F 29.6 in WNW 3 mph 12 mph 86 % 0 in
21:02 42.8 °F 38.8 °F 29.6 in SW 9 mph 12 mph 86 % 0 in
21:07 42.8 °F 38.8 °F 29.6 in SW 8 mph 12 mph 86 % 0 in
21:12 42.8 °F 38.8 °F 29.6 in SW 7 mph 15 mph 86 % 0 in
21:17 42.8 °F 38.8 °F 29.6 in SW 8 mph 15 mph 86 % 0 in
21:22 43 °F 38.8 °F 29.6 in SW 8 mph 15 mph 85 % 0 in
21:27 43 °F 38.8 °F 29.6 in SW 8 mph 15 mph 85 % 0 in
21:32 43 °F 39 °F 29.6 in WSW 9 mph 15 mph 86 % 0 in
21:37 43 °F 39 °F 29.6 in West 6 mph 15 mph 86 % 0 in
21:42 43 °F 39 °F 29.6 in SW 4 mph 13 mph 86 % 0 in
21:47 43 °F 39 °F 29.6 in WSW 8 mph 13 mph 86 % 0 in
21:52 43 °F 39.4 °F 29.6 in SW 12 mph 13 mph 87 % 0 in
21:57 42.8 °F 39.2 °F 29.6 in SW 11 mph 12 mph 87 % 0 in
22:02 42.8 °F 39.6 °F 29.6 in SW 10 mph 14 mph 88 % 0 in
22:12 42.6 °F 39.4 °F 29.6 in SSW 10 mph 15 mph 88 % 0 in
22:17 42.4 °F 39.2 °F 29.6 in SW 7 mph 15 mph 88 % 0 in
22:22 42.6 °F 39.4 °F 29.6 in SW 8 mph 15 mph 88 % 0 in
22:27 42.6 °F 39.4 °F 29.6 in SW 11 mph 15 mph 88 % 0 in
22:32 42.6 °F 39.4 °F 29.6 in SW 8 mph 15 mph 88 % 0 in
22:37 42.4 °F 39.2 °F 29.6 in SW 9 mph 15 mph 88 % 0 in
22:42 42.4 °F 39.4 °F 29.6 in South 3 mph 16 mph 89 % 0 in
22:47 42.3 °F 39.2 °F 29.6 in SW 6 mph 16 mph 89 % 0 in
22:52 42.1 °F 39 °F 29.6 in SW 5 mph 16 mph 89 % 0 in
22:57 42.1 °F 39.4 °F 29.6 in SW 7 mph 15 mph 90 % 0 in
23:02 42.1 °F 39.4 °F 29.6 in SW 10 mph 15 mph 90 % 0 in
23:07 41.9 °F 39.2 °F 29.6 in SW 9 mph 15 mph 90 % 0 in
23:12 41.9 °F 39.2 °F 29.6 in WSW 2 mph 13 mph 90 % 0 in
23:17 41.9 °F 39.2 °F 29.6 in SW 4 mph 13 mph 90 % 0 in
23:22 41.9 °F 39.2 °F 29.6 in WSW 8 mph 12 mph 90 % 0 in
23:27 41.9 °F 39.2 °F 29.6 in SW 12 mph 12 mph 90 % 0 in
23:32 41.7 °F 39 °F 29.6 in SW 11 mph 13 mph 90 % 0 in
23:42 41.7 °F 39 °F 29.6 in SW 8 mph 15 mph 90 % 0 in
23:47 41.7 °F 39 °F 29.6 in WSW 11 mph 15 mph 90 % 0 in
23:52 41.7 °F 39.2 °F 29.6 in SSW 8 mph 16 mph 91 % 0 in
23:57 41.7 °F 39.2 °F 29.6 in WSW 4 mph 16 mph 91 % 0 in
Meteo18
Compliments of Weather Underground - 4 mb

Script developed by  Jim McMurry - jmcmurry@mwt.net Adapted for the template by  Wim van der Kuil - Leuven-Template.eu

You find our weather info also at:

European Weather Network

Weather Underground

Equipment we use:

Weather-station
Davis Vue

Weather-program
Meteohub

Weather-server
Raspberry PI 2 B+

Provider
1 and 1

Davis Vue

Meteohub

Raspberry PI 2 B+

1 and 1